Aroma, Missouri
Current Conditions -  °F | °C
As of 4:15 PM on Friday 31 Oct 2014 (Local Time) from KHFJ Reporting Station
Clear Clear  
Wind Chill: 38°   Ceiling: Unl
Heat Index: 45°   Visibility: 10mi
Dew Point: 21°   Wind: 14mph
Humidity: 39%   Direction: 330°NNW
Pressure: 30.35"   Gusts: 18mph
Location:  36.8998°N, 94.263°W
Report Text: KHFJ 312115Z AUTO 33012G16KT 10SM CLR 07/M06 A3035 RMK AO2
Loading
Personal Weather Stations






























Interactive Weather Map
Tropical Storm Tracking
New forecast layout! Learn more

10-Day Weather Forecast

Advertisements
Track Severe Weather on mobile